sensor_id;sensor_type;location;lat;lon;timestamp;P1;durP1;ratioP1;P2;durP2;ratioP2
39276;SDS011;63149;48.086;-1.606;2023-05-25T05:01:45;15.40;;;7.18;;
39276;SDS011;63149;48.086;-1.606;2023-05-25T05:09:24;16.48;;;8.07;;
39276;SDS011;63149;48.086;-1.606;2023-05-25T05:11:51;16.38;;;7.50;;
39276;SDS011;63149;48.086;-1.606;2023-05-25T05:14:19;15.60;;;7.00;;
39276;SDS011;63149;48.086;-1.606;2023-05-25T05:16:47;15.93;;;7.10;;
39276;SDS011;63149;48.086;-1.606;2023-05-25T05:19:15;15.25;;;6.93;;
39276;SDS011;63149;48.086;-1.606;2023-05-25T05:21:42;23.02;;;8.43;;
39276;SDS011;63149;48.086;-1.606;2023-05-25T05:24:09;15.32;;;6.43;;
39276;SDS011;63149;48.086;-1.606;2023-05-25T05:26:37;15.77;;;7.22;;
39276;SDS011;63149;48.086;-1.606;2023-05-25T05:29:05;17.60;;;7.50;;
39276;SDS011;63149;48.086;-1.606;2023-05-25T05:31:33;14.88;;;6.35;;
39276;SDS011;63149;48.086;-1.606;2023-05-25T05:34:02;14.27;;;7.05;;
39276;SDS011;63149;48.086;-1.606;2023-05-25T05:36:29;17.33;;;7.25;;
39276;SDS011;63149;48.086;-1.606;2023-05-25T05:38:57;16.95;;;7.22;;
39276;SDS011;63149;48.086;-1.606;2023-05-25T05:41:25;15.82;;;7.75;;
39276;SDS011;63149;48.086;-1.606;2023-05-25T05:49:05;18.70;;;7.88;;
39276;SDS011;63149;48.086;-1.606;2023-05-25T05:51:32;19.10;;;7.93;;
39276;SDS011;63149;48.086;-1.606;2023-05-25T05:54:00;15.70;;;7.78;;
39276;SDS011;63149;48.086;-1.606;2023-05-25T05:56:27;17.48;;;8.52;;
39276;SDS011;63149;48.086;-1.606;2023-05-25T05:58:54;22.85;;;8.27;;
39276;SDS011;63149;48.086;-1.606;2023-05-25T06:01:21;20.55;;;8.10;;
39276;SDS011;63149;48.086;-1.606;2023-05-25T06:03:49;15.38;;;7.63;;
39276;SDS011;63149;48.086;-1.606;2023-05-25T06:06:19;22.55;;;8.35;;
39276;SDS011;63149;48.086;-1.606;2023-05-25T06:08:47;16.67;;;8.40;;
39276;SDS011;63149;48.086;-1.606;2023-05-25T06:11:14;19.48;;;7.80;;
39276;SDS011;63149;48.086;-1.606;2023-05-25T06:13:41;16.58;;;7.53;;
39276;SDS011;63149;48.086;-1.606;2023-05-25T06:16:08;21.40;;;8.60;;
39276;SDS011;63149;48.086;-1.606;2023-05-25T06:18:36;18.13;;;9.35;;
39276;SDS011;63149;48.086;-1.606;2023-05-25T06:21:04;21.67;;;8.20;;
39276;SDS011;63149;48.086;-1.606;2023-05-25T06:23:33;22.42;;;9.25;;
39276;SDS011;63149;48.086;-1.606;2023-05-25T06:26:03;27.88;;;9.10;;
39276;SDS011;63149;48.086;-1.606;2023-05-25T06:28:30;23.13;;;9.48;;
39276;SDS011;63149;48.086;-1.606;2023-05-25T06:30:58;23.23;;;10.48;;
39276;SDS011;63149;48.086;-1.606;2023-05-25T06:41:13;36.55;;;11.77;;
39276;SDS011;63149;48.086;-1.606;2023-05-25T06:43:42;76.10;;;13.15;;
39276;SDS011;63149;48.086;-1.606;2023-05-25T06:46:09;24.33;;;10.60;;
39276;SDS011;63149;48.086;-1.606;2023-05-25T06:48:42;25.50;;;10.57;;
39276;SDS011;63149;48.086;-1.606;2023-05-25T06:51:10;23.08;;;11.00;;
39276;SDS011;63149;48.086;-1.606;2023-05-25T06:53:37;26.02;;;12.15;;
39276;SDS011;63149;48.086;-1.606;2023-05-25T06:56:04;27.98;;;12.63;;
39276;SDS011;63149;48.086;-1.606;2023-05-25T06:58:33;24.73;;;11.70;;
39276;SDS011;63149;48.086;-1.606;2023-05-25T07:01:00;27.67;;;13.23;;
39276;SDS011;63149;48.086;-1.606;2023-05-25T07:03:28;27.33;;;13.23;;
39276;SDS011;63149;48.086;-1.606;2023-05-25T07:05:57;31.15;;;13.23;;
39276;SDS011;63149;48.086;-1.606;2023-05-25T07:08:24;28.48;;;12.82;;
39276;SDS011;63149;48.086;-1.606;2023-05-25T07:10:51;25.95;;;12.63;;
39276;SDS011;63149;48.086;-1.606;2023-05-25T07:13:19;31.40;;;12.57;;
39276;SDS011;63149;48.086;-1.606;2023-05-25T07:15:47;33.03;;;12.30;;
39276;SDS011;63149;48.086;-1.606;2023-05-25T07:18:16;28.27;;;12.77;;
39276;SDS011;63149;48.086;-1.606;2023-05-25T07:20:43;30.40;;;12.30;;
39276;SDS011;63149;48.086;-1.606;2023-05-25T07:23:12;29.55;;;12.55;;
39276;SDS011;63149;48.086;-1.606;2023-05-25T07:25:40;29.60;;;12.93;;
39276;SDS011;63149;48.086;-1.606;2023-05-25T07:28:07;27.90;;;12.70;;
39276;SDS011;63149;48.086;-1.606;2023-05-25T07:30:35;28.60;;;12.95;;
39276;SDS011;63149;48.086;-1.606;2023-05-25T07:33:03;29.08;;;13.50;;
39276;SDS011;63149;48.086;-1.606;2023-05-25T07:35:30;28.45;;;13.05;;
39276;SDS011;63149;48.086;-1.606;2023-05-25T07:38:00;28.80;;;13.45;;
39276;SDS011;63149;48.086;-1.606;2023-05-25T07:40:28;34.88;;;14.55;;
39276;SDS011;63149;48.086;-1.606;2023-05-25T07:42:55;30.88;;;12.98;;
39276;SDS011;63149;48.086;-1.606;2023-05-25T07:45:22;30.25;;;13.63;;
39276;SDS011;63149;48.086;-1.606;2023-05-25T07:47:50;28.88;;;12.35;;
39276;SDS011;63149;48.086;-1.606;2023-05-25T07:50:18;26.10;;;11.25;;
39276;SDS011;63149;48.086;-1.606;2023-05-25T07:52:46;28.23;;;12.98;;
39276;SDS011;63149;48.086;-1.606;2023-05-25T07:55:13;35.40;;;13.13;;
39276;SDS011;63149;48.086;-1.606;2023-05-25T07:57:40;25.02;;;12.80;;
39276;SDS011;63149;48.086;-1.606;2023-05-25T08:00:08;27.25;;;12.25;;
39276;SDS011;63149;48.086;-1.606;2023-05-25T08:02:35;30.88;;;13.25;;
39276;SDS011;63149;48.086;-1.606;2023-05-25T08:05:03;31.73;;;11.45;;
39276;SDS011;63149;48.086;-1.606;2023-05-25T08:07:32;24.20;;;10.80;;
39276;SDS011;63149;48.086;-1.606;2023-05-25T08:09:59;23.92;;;11.55;;
39276;SDS011;63149;48.086;-1.606;2023-05-25T08:12:26;26.98;;;11.30;;
39276;SDS011;63149;48.086;-1.606;2023-05-25T08:14:54;22.83;;;10.82;;
39276;SDS011;63149;48.086;-1.606;2023-05-25T08:17:22;21.05;;;10.77;;
39276;SDS011;63149;48.086;-1.606;2023-05-25T08:19:49;22.02;;;10.73;;
39276;SDS011;63149;48.086;-1.606;2023-05-25T08:22:16;30.80;;;11.90;;
39276;SDS011;63149;48.086;-1.606;2023-05-25T08:24:45;25.17;;;11.23;;
39276;SDS011;63149;48.086;-1.606;2023-05-25T08:27:12;24.48;;;12.70;;
39276;SDS011;63149;48.086;-1.606;2023-05-25T08:29:40;24.02;;;10.93;;
39276;SDS011;63149;48.086;-1.606;2023-05-25T08:32:07;26.83;;;11.57;;
39276;SDS011;63149;48.086;-1.606;2023-05-25T08:34:34;32.50;;;12.70;;
39276;SDS011;63149;48.086;-1.606;2023-05-25T08:37:01;27.00;;;12.70;;
39276;SDS011;63149;48.086;-1.606;2023-05-25T08:39:28;28.65;;;11.45;;
39276;SDS011;63149;48.086;-1.606;2023-05-25T08:41:57;24.48;;;12.00;;
39276;SDS011;63149;48.086;-1.606;2023-05-25T08:44:25;29.10;;;12.85;;
39276;SDS011;63149;48.086;-1.606;2023-05-25T08:46:53;31.98;;;11.95;;
39276;SDS011;63149;48.086;-1.606;2023-05-25T08:49:22;27.02;;;12.45;;
39276;SDS011;63149;48.086;-1.606;2023-05-25T08:51:50;25.50;;;11.77;;
39276;SDS011;63149;48.086;-1.606;2023-05-25T08:54:18;31.63;;;12.98;;
39276;SDS011;63149;48.086;-1.606;2023-05-25T08:56:47;23.75;;;11.68;;
39276;SDS011;63149;48.086;-1.606;2023-05-25T08:59:27;25.70;;;11.60;;
39276;SDS011;63149;48.086;-1.606;2023-05-25T09:01:56;22.88;;;10.13;;
39276;SDS011;63149;48.086;-1.606;2023-05-25T09:04:26;24.00;;;11.02;;
39276;SDS011;63149;48.086;-1.606;2023-05-25T09:06:53;20.92;;;10.55;;
39276;SDS011;63149;48.086;-1.606;2023-05-25T09:09:21;21.52;;;10.30;;
39276;SDS011;63149;48.086;-1.606;2023-05-25T09:11:48;21.25;;;10.32;;
39276;SDS011;63149;48.086;-1.606;2023-05-25T09:14:15;19.63;;;9.80;;
39276;SDS011;63149;48.086;-1.606;2023-05-25T09:16:44;28.75;;;10.82;;
39276;SDS011;63149;48.086;-1.606;2023-05-25T09:19:11;27.73;;;10.73;;
39276;SDS011;63149;48.086;-1.606;2023-05-25T09:21:38;24.30;;;9.95;;
39276;SDS011;63149;48.086;-1.606;2023-05-25T09:24:06;26.02;;;10.10;;
39276;SDS011;63149;48.086;-1.606;2023-05-25T09:26:33;29.02;;;10.25;;
39276;SDS011;63149;48.086;-1.606;2023-05-25T09:29:00;24.05;;;10.02;;
39276;SDS011;63149;48.086;-1.606;2023-05-25T09:31:28;22.10;;;9.43;;
39276;SDS011;63149;48.086;-1.606;2023-05-25T09:33:56;19.85;;;8.45;;
39276;SDS011;63149;48.086;-1.606;2023-05-25T09:36:25;20.95;;;9.45;;
39276;SDS011;63149;48.086;-1.606;2023-05-25T09:38:52;18.17;;;8.75;;
39276;SDS011;63149;48.086;-1.606;2023-05-25T09:41:20;22.20;;;8.23;;
39276;SDS011;63149;48.086;-1.606;2023-05-25T09:43:48;149.23;;;13.52;;
39276;SDS011;63149;48.086;-1.606;2023-05-25T09:46:15;23.77;;;9.02;;
39276;SDS011;63149;48.086;-1.606;2023-05-25T09:48:42;18.42;;;8.63;;
39276;SDS011;63149;48.086;-1.606;2023-05-25T09:51:13;20.27;;;9.50;;
39276;SDS011;63149;48.086;-1.606;2023-05-25T09:53:41;18.30;;;8.48;;
39276;SDS011;63149;48.086;-1.606;2023-05-25T09:56:09;17.75;;;8.13;;
39276;SDS011;63149;48.086;-1.606;2023-05-25T09:58:37;24.55;;;8.18;;
39276;SDS011;63149;48.086;-1.606;2023-05-25T10:01:04;18.98;;;7.47;;
39276;SDS011;63149;48.086;-1.606;2023-05-25T10:03:31;19.70;;;7.85;;
39276;SDS011;63149;48.086;-1.606;2023-05-25T10:05:58;19.42;;;8.05;;
39276;SDS011;63149;48.086;-1.606;2023-05-25T10:08:28;17.52;;;7.15;;
39276;SDS011;63149;48.086;-1.606;2023-05-25T10:10:55;13.60;;;6.82;;
39276;SDS011;63149;48.086;-1.606;2023-05-25T10:13:22;17.00;;;7.18;;
39276;SDS011;63149;48.086;-1.606;2023-05-25T10:15:51;14.77;;;7.40;;
39276;SDS011;63149;48.086;-1.606;2023-05-25T10:18:20;15.93;;;6.90;;
39276;SDS011;63149;48.086;-1.606;2023-05-25T10:20:51;17.55;;;6.40;;
39276;SDS011;63149;48.086;-1.606;2023-05-25T10:23:19;14.40;;;7.18;;
39276;SDS011;63149;48.086;-1.606;2023-05-25T10:25:50;18.08;;;7.53;;
39276;SDS011;63149;48.086;-1.606;2023-05-25T10:28:21;15.15;;;6.40;;
39276;SDS011;63149;48.086;-1.606;2023-05-25T10:30:48;15.13;;;6.95;;
39276;SDS011;63149;48.086;-1.606;2023-05-25T10:33:16;14.93;;;5.65;;
39276;SDS011;63149;48.086;-1.606;2023-05-25T10:35:44;17.00;;;7.32;;
39276;SDS011;63149;48.086;-1.606;2023-05-25T10:38:12;11.40;;;6.28;;
39276;SDS011;63149;48.086;-1.606;2023-05-25T10:40:39;17.83;;;6.03;;
39276;SDS011;63149;48.086;-1.606;2023-05-25T10:43:08;14.30;;;5.63;;
39276;SDS011;63149;48.086;-1.606;2023-05-25T10:45:35;12.02;;;5.85;;
39276;SDS011;63149;48.086;-1.606;2023-05-25T10:48:02;11.82;;;4.90;;
39276;SDS011;63149;48.086;-1.606;2023-05-25T10:50:33;18.67;;;5.75;;
39276;SDS011;63149;48.086;-1.606;2023-05-25T10:53:01;12.05;;;5.03;;
39276;SDS011;63149;48.086;-1.606;2023-05-25T10:55:29;9.93;;;4.93;;
39276;SDS011;63149;48.086;-1.606;2023-05-25T10:58:08;11.63;;;4.60;;
39276;SDS011;63149;48.086;-1.606;2023-05-25T11:00:36;14.32;;;4.18;;
39276;SDS011;63149;48.086;-1.606;2023-05-25T11:03:03;12.25;;;4.47;;
39276;SDS011;63149;48.086;-1.606;2023-05-25T11:05:34;11.63;;;4.45;;
39276;SDS011;63149;48.086;-1.606;2023-05-25T11:08:03;13.50;;;5.28;;
39276;SDS011;63149;48.086;-1.606;2023-05-25T11:10:40;9.43;;;4.28;;
39276;SDS011;63149;48.086;-1.606;2023-05-25T11:18:48;12.68;;;4.60;;
39276;SDS011;63149;48.086;-1.606;2023-05-25T11:23:53;11.43;;;4.05;;
39276;SDS011;63149;48.086;-1.606;2023-05-25T11:26:21;11.25;;;4.28;;
39276;SDS011;63149;48.086;-1.606;2023-05-25T11:28:49;10.50;;;3.55;;
39276;SDS011;63149;48.086;-1.606;2023-05-25T11:31:20;11.23;;;3.20;;
39276;SDS011;63149;48.086;-1.606;2023-05-25T11:33:49;8.25;;;3.55;;
39276;SDS011;63149;48.086;-1.606;2023-05-25T11:36:21;9.73;;;3.75;;
39276;SDS011;63149;48.086;-1.606;2023-05-25T11:38:48;10.15;;;3.95;;
39276;SDS011;63149;48.086;-1.606;2023-05-25T11:41:16;9.30;;;4.00;;
39276;SDS011;63149;48.086;-1.606;2023-05-25T11:43:44;13.05;;;3.85;;
39276;SDS011;63149;48.086;-1.606;2023-05-25T11:46:11;6.10;;;3.72;;
39276;SDS011;63149;48.086;-1.606;2023-05-25T11:48:41;10.23;;;4.07;;
39276;SDS011;63149;48.086;-1.606;2023-05-25T11:51:10;8.37;;;2.90;;
39276;SDS011;63149;48.086;-1.606;2023-05-25T11:53:41;12.18;;;3.58;;
39276;SDS011;63149;48.086;-1.606;2023-05-25T11:56:09;14.30;;;4.03;;
39276;SDS011;63149;48.086;-1.606;2023-05-25T11:58:37;12.20;;;4.93;;
39276;SDS011;63149;48.086;-1.606;2023-05-25T12:01:14;12.00;;;4.07;;
39276;SDS011;63149;48.086;-1.606;2023-05-25T12:03:42;7.60;;;3.42;;
39276;SDS011;63149;48.086;-1.606;2023-05-25T12:06:23;8.80;;;3.97;;
39276;SDS011;63149;48.086;-1.606;2023-05-25T12:08:51;7.43;;;3.17;;
39276;SDS011;63149;48.086;-1.606;2023-05-25T12:11:19;9.10;;;3.50;;
39276;SDS011;63149;48.086;-1.606;2023-05-25T12:13:52;8.82;;;3.00;;
39276;SDS011;63149;48.086;-1.606;2023-05-25T12:16:20;8.80;;;3.33;;
39276;SDS011;63149;48.086;-1.606;2023-05-25T12:18:47;7.32;;;3.30;;
39276;SDS011;63149;48.086;-1.606;2023-05-25T12:21:14;7.80;;;3.78;;
39276;SDS011;63149;48.086;-1.606;2023-05-25T12:23:43;5.90;;;3.20;;
39276;SDS011;63149;48.086;-1.606;2023-05-25T12:26:11;7.07;;;3.20;;
39276;SDS011;63149;48.086;-1.606;2023-05-25T12:28:38;9.52;;;3.95;;
39276;SDS011;63149;48.086;-1.606;2023-05-25T12:31:21;6.63;;;2.90;;
39276;SDS011;63149;48.086;-1.606;2023-05-25T12:34:02;8.52;;;3.17;;
39276;SDS011;63149;48.086;-1.606;2023-05-25T12:36:36;12.73;;;3.33;;
39276;SDS011;63149;48.086;-1.606;2023-05-25T12:39:05;10.90;;;3.40;;
39276;SDS011;63149;48.086;-1.606;2023-05-25T12:44:18;6.47;;;3.47;;
39276;SDS011;63149;48.086;-1.606;2023-05-25T12:49:23;7.25;;;2.88;;
39276;SDS011;63149;48.086;-1.606;2023-05-25T12:54:38;6.07;;;3.13;;
39276;SDS011;63149;48.086;-1.606;2023-05-25T12:59:43;6.30;;;3.15;;
39276;SDS011;63149;48.086;-1.606;2023-05-25T13:02:11;7.90;;;2.83;;
39276;SDS011;63149;48.086;-1.606;2023-05-25T13:07:15;8.00;;;3.50;;
39276;SDS011;63149;48.086;-1.606;2023-05-25T13:09:43;5.88;;;2.70;;
39276;SDS011;63149;48.086;-1.606;2023-05-25T13:12:11;11.10;;;3.55;;
39276;SDS011;63149;48.086;-1.606;2023-05-25T13:14:38;10.30;;;3.90;;
39276;SDS011;63149;48.086;-1.606;2023-05-25T13:27:30;8.73;;;2.97;;
39276;SDS011;63149;48.086;-1.606;2023-05-25T13:29:57;10.13;;;3.10;;
39276;SDS011;63149;48.086;-1.606;2023-05-25T13:34:55;6.80;;;3.05;;
39276;SDS011;63149;48.086;-1.606;2023-05-25T13:42:36;8.07;;;2.80;;
39276;SDS011;63149;48.086;-1.606;2023-05-25T13:45:04;8.15;;;3.45;;
39276;SDS011;63149;48.086;-1.606;2023-05-25T13:47:31;8.30;;;3.53;;
39276;SDS011;63149;48.086;-1.606;2023-05-25T13:49:59;8.40;;;3.72;;
39276;SDS011;63149;48.086;-1.606;2023-05-25T13:55:01;9.07;;;3.15;;
39276;SDS011;63149;48.086;-1.606;2023-05-25T13:57:29;6.50;;;3.05;;
39276;SDS011;63149;48.086;-1.606;2023-05-25T13:59:57;10.18;;;3.80;;
39276;SDS011;63149;48.086;-1.606;2023-05-25T14:02:24;8.88;;;3.28;;
39276;SDS011;63149;48.086;-1.606;2023-05-25T14:04:53;9.02;;;2.80;;
39276;SDS011;63149;48.086;-1.606;2023-05-25T14:12:32;12.52;;;3.50;;
39276;SDS011;63149;48.086;-1.606;2023-05-25T14:15:01;6.95;;;3.50;;
39276;SDS011;63149;48.086;-1.606;2023-05-25T14:17:28;8.75;;;3.13;;
39276;SDS011;63149;48.086;-1.606;2023-05-25T14:19:56;9.40;;;3.25;;
39276;SDS011;63149;48.086;-1.606;2023-05-25T14:22:24;9.48;;;3.78;;
39276;SDS011;63149;48.086;-1.606;2023-05-25T14:24:51;8.05;;;3.30;;
39276;SDS011;63149;48.086;-1.606;2023-05-25T14:27:19;8.70;;;3.58;;
39276;SDS011;63149;48.086;-1.606;2023-05-25T14:29:46;9.10;;;3.40;;
39276;SDS011;63149;48.086;-1.606;2023-05-25T14:32:14;11.95;;;3.63;;
39276;SDS011;63149;48.086;-1.606;2023-05-25T14:34:42;8.23;;;2.97;;
39276;SDS011;63149;48.086;-1.606;2023-05-25T14:42:21;4.30;;;3.10;;
39276;SDS011;63149;48.086;-1.606;2023-05-25T14:47:25;6.93;;;3.13;;
39276;SDS011;63149;48.086;-1.606;2023-05-25T14:49:52;7.63;;;3.20;;
39276;SDS011;63149;48.086;-1.606;2023-05-25T14:52:20;8.80;;;3.30;;
39276;SDS011;63149;48.086;-1.606;2023-05-25T14:54:47;5.97;;;3.25;;
39276;SDS011;63149;48.086;-1.606;2023-05-25T14:57:16;7.60;;;3.13;;
39276;SDS011;63149;48.086;-1.606;2023-05-25T14:59:43;15.25;;;3.85;;
39276;SDS011;63149;48.086;-1.606;2023-05-25T15:02:10;7.40;;;3.13;;
39276;SDS011;63149;48.086;-1.606;2023-05-25T15:04:39;8.50;;;3.45;;
39276;SDS011;63149;48.086;-1.606;2023-05-25T15:07:06;6.97;;;3.67;;
39276;SDS011;63149;48.086;-1.606;2023-05-25T15:09:33;7.20;;;3.05;;
39276;SDS011;63149;48.086;-1.606;2023-05-25T15:12:01;10.10;;;3.40;;
39276;SDS011;63149;48.086;-1.606;2023-05-25T15:32:40;6.32;;;3.45;;
39276;SDS011;63149;48.086;-1.606;2023-05-25T15:37:43;11.40;;;3.85;;
39276;SDS011;63149;48.086;-1.606;2023-05-25T15:40:11;11.45;;;3.70;;
39276;SDS011;63149;48.086;-1.606;2023-05-25T15:42:38;8.13;;;3.15;;
39276;SDS011;63149;48.086;-1.606;2023-05-25T15:45:06;6.15;;;3.45;;
39276;SDS011;63149;48.086;-1.606;2023-05-25T15:47:33;5.25;;;2.95;;
39276;SDS011;63149;48.086;-1.606;2023-05-25T15:50:02;5.53;;;3.25;;
39276;SDS011;63149;48.086;-1.606;2023-05-25T15:52:29;11.07;;;3.47;;
39276;SDS011;63149;48.086;-1.606;2023-05-25T15:54:56;9.27;;;3.67;;
39276;SDS011;63149;48.086;-1.606;2023-05-25T15:57:23;8.48;;;3.58;;
39276;SDS011;63149;48.086;-1.606;2023-05-25T15:59:51;6.22;;;3.03;;
39276;SDS011;63149;48.086;-1.606;2023-05-25T16:02:18;7.90;;;3.45;;
39276;SDS011;63149;48.086;-1.606;2023-05-25T16:04:45;8.07;;;3.15;;
39276;SDS011;63149;48.086;-1.606;2023-05-25T16:07:14;7.95;;;3.22;;
39276;SDS011;63149;48.086;-1.606;2023-05-25T16:09:41;8.65;;;3.05;;
39276;SDS011;63149;48.086;-1.606;2023-05-25T16:12:08;12.13;;;3.80;;
39276;SDS011;63149;48.086;-1.606;2023-05-25T16:14:35;5.93;;;2.90;;
39276;SDS011;63149;48.086;-1.606;2023-05-25T16:17:03;8.63;;;3.33;;
39276;SDS011;63149;48.086;-1.606;2023-05-25T16:19:30;8.38;;;3.45;;
39276;SDS011;63149;48.086;-1.606;2023-05-25T16:21:57;11.80;;;4.22;;
39276;SDS011;63149;48.086;-1.606;2023-05-25T16:24:26;8.82;;;3.00;;
39276;SDS011;63149;48.086;-1.606;2023-05-25T16:26:53;6.60;;;3.20;;
39276;SDS011;63149;48.086;-1.606;2023-05-25T16:29:21;7.97;;;3.95;;
39276;SDS011;63149;48.086;-1.606;2023-05-25T16:31:48;9.75;;;3.13;;
39276;SDS011;63149;48.086;-1.606;2023-05-25T16:34:15;10.80;;;3.08;;
39276;SDS011;63149;48.086;-1.606;2023-05-25T16:36:43;6.15;;;2.83;;
39276;SDS011;63149;48.086;-1.606;2023-05-25T16:39:10;7.95;;;3.88;;
39276;SDS011;63149;48.086;-1.606;2023-05-25T16:41:38;6.70;;;3.17;;
39276;SDS011;63149;48.086;-1.606;2023-05-25T16:44:06;10.13;;;3.65;;
39276;SDS011;63149;48.086;-1.606;2023-05-25T16:46:34;11.07;;;3.72;;
39276;SDS011;63149;48.086;-1.606;2023-05-25T16:49:02;8.88;;;3.25;;
39276;SDS011;63149;48.086;-1.606;2023-05-25T16:51:29;11.20;;;3.78;;
39276;SDS011;63149;48.086;-1.606;2023-05-25T16:53:56;7.50;;;3.35;;
39276;SDS011;63149;48.086;-1.606;2023-05-25T16:56:23;9.80;;;3.05;;
39276;SDS011;63149;48.086;-1.606;2023-05-25T16:58:52;7.28;;;3.28;;
39276;SDS011;63149;48.086;-1.606;2023-05-25T17:01:19;8.73;;;3.80;;
39276;SDS011;63149;48.086;-1.606;2023-05-25T17:03:46;9.50;;;3.60;;
39276;SDS011;63149;48.086;-1.606;2023-05-25T17:06:13;7.32;;;3.70;;
39276;SDS011;63149;48.086;-1.606;2023-05-25T17:08:40;10.45;;;3.83;;
39276;SDS011;63149;48.086;-1.606;2023-05-25T17:11:08;9.23;;;4.03;;
39276;SDS011;63149;48.086;-1.606;2023-05-25T17:13:35;8.55;;;3.53;;
39276;SDS011;63149;48.086;-1.606;2023-05-25T17:16:04;10.73;;;3.90;;
39276;SDS011;63149;48.086;-1.606;2023-05-25T17:18:31;9.52;;;3.15;;
39276;SDS011;63149;48.086;-1.606;2023-05-25T17:23:34;10.60;;;3.85;;
39276;SDS011;63149;48.086;-1.606;2023-05-25T17:26:01;11.98;;;3.70;;
39276;SDS011;63149;48.086;-1.606;2023-05-25T17:28:29;12.05;;;4.10;;
39276;SDS011;63149;48.086;-1.606;2023-05-25T17:30:57;11.85;;;3.53;;
39276;SDS011;63149;48.086;-1.606;2023-05-25T17:36:02;11.05;;;4.57;;
39276;SDS011;63149;48.086;-1.606;2023-05-25T18:01:52;12.02;;;4.72;;
39276;SDS011;63149;48.086;-1.606;2023-05-25T18:14:43;14.88;;;5.38;;
39276;SDS011;63149;48.086;-1.606;2023-05-25T18:17:12;17.02;;;5.10;;
39276;SDS011;63149;48.086;-1.606;2023-05-25T18:19:39;16.30;;;5.13;;
39276;SDS011;63149;48.086;-1.606;2023-05-25T18:22:06;9.60;;;4.82;;
39276;SDS011;63149;48.086;-1.606;2023-05-25T18:29:45;11.02;;;5.00;;
39276;SDS011;63149;48.086;-1.606;2023-05-25T18:32:13;12.15;;;5.30;;
39276;SDS011;63149;48.086;-1.606;2023-05-25T18:34:41;13.30;;;4.55;;
39276;SDS011;63149;48.086;-1.606;2023-05-25T18:37:09;13.13;;;4.50;;
39276;SDS011;63149;48.086;-1.606;2023-05-25T18:42:12;10.90;;;4.40;;
39276;SDS011;63149;48.086;-1.606;2023-05-25T18:44:39;14.02;;;4.90;;
39276;SDS011;63149;48.086;-1.606;2023-05-25T18:47:06;14.70;;;4.60;;
39276;SDS011;63149;48.086;-1.606;2023-05-25T18:49:36;11.93;;;4.93;;
39276;SDS011;63149;48.086;-1.606;2023-05-25T18:52:03;14.43;;;4.88;;
39276;SDS011;63149;48.086;-1.606;2023-05-25T18:54:32;15.52;;;4.60;;
39276;SDS011;63149;48.086;-1.606;2023-05-25T18:56:59;11.43;;;4.57;;
39276;SDS011;63149;48.086;-1.606;2023-05-25T18:59:27;12.35;;;4.53;;
39276;SDS011;63149;48.086;-1.606;2023-05-25T19:01:55;13.80;;;5.30;;
39276;SDS011;63149;48.086;-1.606;2023-05-25T19:04:22;14.43;;;5.97;;
39276;SDS011;63149;48.086;-1.606;2023-05-25T19:06:51;13.07;;;4.55;;
39276;SDS011;63149;48.086;-1.606;2023-05-25T19:09:18;14.82;;;5.28;;
39276;SDS011;63149;48.086;-1.606;2023-05-25T19:14:21;15.45;;;4.88;;
39276;SDS011;63149;48.086;-1.606;2023-05-25T19:16:48;15.52;;;5.57;;
39276;SDS011;63149;48.086;-1.606;2023-05-25T19:19:15;12.63;;;5.35;;
39276;SDS011;63149;48.086;-1.606;2023-05-25T19:21:43;9.93;;;4.65;;
39276;SDS011;63149;48.086;-1.606;2023-05-25T19:24:12;10.85;;;5.00;;
39276;SDS011;63149;48.086;-1.606;2023-05-25T19:31:50;11.38;;;4.63;;
39276;SDS011;63149;48.086;-1.606;2023-05-25T19:34:18;15.05;;;6.43;;
39276;SDS011;63149;48.086;-1.606;2023-05-25T19:36:46;13.20;;;5.40;;
39276;SDS011;63149;48.086;-1.606;2023-05-25T19:39:15;16.38;;;5.32;;
39276;SDS011;63149;48.086;-1.606;2023-05-25T19:41:42;11.27;;;5.00;;
39276;SDS011;63149;48.086;-1.606;2023-05-25T19:44:09;14.88;;;5.15;;
39276;SDS011;63149;48.086;-1.606;2023-05-25T19:49:12;11.43;;;5.00;;
39276;SDS011;63149;48.086;-1.606;2023-05-25T19:51:40;13.95;;;5.00;;
39276;SDS011;63149;48.086;-1.606;2023-05-25T19:54:07;19.45;;;5.70;;
39276;SDS011;63149;48.086;-1.606;2023-05-25T19:56:36;12.50;;;4.70;;
39276;SDS011;63149;48.086;-1.606;2023-05-25T19:59:03;14.50;;;5.50;;
39276;SDS011;63149;48.086;-1.606;2023-05-25T20:01:30;15.05;;;5.30;;
39276;SDS011;63149;48.086;-1.606;2023-05-25T20:03:59;17.65;;;5.93;;
39276;SDS011;63149;48.086;-1.606;2023-05-25T20:06:26;12.80;;;5.00;;
39276;SDS011;63149;48.086;-1.606;2023-05-25T20:08:53;17.10;;;5.10;;
39276;SDS011;63149;48.086;-1.606;2023-05-25T20:11:21;12.68;;;4.97;;
39276;SDS011;63149;48.086;-1.606;2023-05-25T20:13:49;11.85;;;5.28;;
39276;SDS011;63149;48.086;-1.606;2023-05-25T20:16:19;15.05;;;5.43;;
39276;SDS011;63149;48.086;-1.606;2023-05-25T20:18:46;11.98;;;5.00;;
39276;SDS011;63149;48.086;-1.606;2023-05-25T20:21:13;14.57;;;5.10;;
39276;SDS011;63149;48.086;-1.606;2023-05-25T20:23:42;10.38;;;4.82;;
39276;SDS011;63149;48.086;-1.606;2023-05-25T20:26:10;11.38;;;4.65;;
39276;SDS011;63149;48.086;-1.606;2023-05-25T20:28:37;11.65;;;4.75;;
39276;SDS011;63149;48.086;-1.606;2023-05-25T20:31:06;10.57;;;5.32;;
39276;SDS011;63149;48.086;-1.606;2023-05-25T20:33:33;15.73;;;5.18;;
39276;SDS011;63149;48.086;-1.606;2023-05-25T20:36:01;12.43;;;5.47;;
39276;SDS011;63149;48.086;-1.606;2023-05-25T20:38:28;10.88;;;4.80;;
39276;SDS011;63149;48.086;-1.606;2023-05-25T20:40:55;13.35;;;5.45;;
39276;SDS011;63149;48.086;-1.606;2023-05-25T20:43:22;9.50;;;5.43;;
39276;SDS011;63149;48.086;-1.606;2023-05-25T20:45:49;10.00;;;5.10;;
39276;SDS011;63149;48.086;-1.606;2023-05-25T20:48:18;17.33;;;5.85;;
39276;SDS011;63149;48.086;-1.606;2023-05-25T20:50:45;11.93;;;5.32;;
39276;SDS011;63149;48.086;-1.606;2023-05-25T20:53:12;10.15;;;5.68;;
39276;SDS011;63149;48.086;-1.606;2023-05-25T20:55:39;15.40;;;5.75;;
39276;SDS011;63149;48.086;-1.606;2023-05-25T20:58:06;6.70;;;4.55;;
39276;SDS011;63149;48.086;-1.606;2023-05-25T21:00:34;16.27;;;5.85;;
39276;SDS011;63149;48.086;-1.606;2023-05-25T21:03:01;11.57;;;4.75;;
39276;SDS011;63149;48.086;-1.606;2023-05-25T21:08:06;18.10;;;5.55;;
39276;SDS011;63149;48.086;-1.606;2023-05-25T21:10:33;13.50;;;5.57;;
39276;SDS011;63149;48.086;-1.606;2023-05-25T21:13:00;12.82;;;5.78;;
39276;SDS011;63149;48.086;-1.606;2023-05-25T21:15:27;10.32;;;6.05;;
39276;SDS011;63149;48.086;-1.606;2023-05-25T21:17:55;13.27;;;5.35;;
39276;SDS011;63149;48.086;-1.606;2023-05-25T21:20:22;14.10;;;5.95;;
39276;SDS011;63149;48.086;-1.606;2023-05-25T21:22:51;12.95;;;5.90;;
39276;SDS011;63149;48.086;-1.606;2023-05-25T21:25:19;16.30;;;5.68;;
39276;SDS011;63149;48.086;-1.606;2023-05-25T21:27:47;14.13;;;6.10;;
39276;SDS011;63149;48.086;-1.606;2023-05-25T21:30:14;14.40;;;6.10;;
39276;SDS011;63149;48.086;-1.606;2023-05-25T21:32:41;15.88;;;5.47;;
39276;SDS011;63149;48.086;-1.606;2023-05-25T21:35:08;13.27;;;4.97;;
39276;SDS011;63149;48.086;-1.606;2023-05-25T21:37:36;12.15;;;5.45;;
39276;SDS011;63149;48.086;-1.606;2023-05-25T21:40:03;14.82;;;6.93;;
39276;SDS011;63149;48.086;-1.606;2023-05-25T21:42:32;14.35;;;5.55;;
39276;SDS011;63149;48.086;-1.606;2023-05-25T21:44:59;15.20;;;6.25;;
39276;SDS011;63149;48.086;-1.606;2023-05-25T21:47:26;13.52;;;5.82;;
39276;SDS011;63149;48.086;-1.606;2023-05-25T21:49:53;13.13;;;5.97;;
39276;SDS011;63149;48.086;-1.606;2023-05-25T21:52:21;17.85;;;5.88;;
39276;SDS011;63149;48.086;-1.606;2023-05-25T21:54:48;15.32;;;6.35;;
39276;SDS011;63149;48.086;-1.606;2023-05-25T21:57:15;14.07;;;6.10;;
39276;SDS011;63149;48.086;-1.606;2023-05-25T21:59:44;12.40;;;5.45;;
39276;SDS011;63149;48.086;-1.606;2023-05-25T22:02:11;15.70;;;6.65;;